createdAt,value
2018-10-06T00:00:14.439Z,1003.83
2018-10-06T00:01:14.466Z,1003.80
2018-10-06T00:02:14.494Z,1003.83
2018-10-06T00:03:14.499Z,1003.85
2018-10-06T00:04:14.528Z,1003.86
2018-10-06T00:05:14.543Z,1003.85
2018-10-06T00:06:14.569Z,1003.85
2018-10-06T00:07:14.586Z,1003.83
2018-10-06T00:08:14.602Z,1003.84
2018-10-06T00:09:14.625Z,1003.90
2018-10-06T00:10:14.649Z,1003.83
2018-10-06T00:11:14.681Z,1003.84
2018-10-06T00:12:14.691Z,1003.78
2018-10-06T00:13:14.705Z,1003.79
2018-10-06T00:14:14.742Z,1003.79
2018-10-06T00:15:14.751Z,1003.75
2018-10-06T00:16:14.773Z,1003.79
2018-10-06T00:17:14.787Z,1003.77
2018-10-06T00:18:14.816Z,1003.74
2018-10-06T00:19:14.843Z,1003.76
2018-10-06T00:20:14.854Z,1003.75
2018-10-06T00:21:14.875Z,1003.76
2018-10-06T00:22:14.895Z,1003.76
2018-10-06T00:23:14.916Z,1003.73
2018-10-06T00:24:14.934Z,1003.72
2018-10-06T00:25:15.018Z,1003.73
2018-10-06T00:26:14.972Z,1003.70
2018-10-06T00:27:15.007Z,1003.67
2018-10-06T00:28:15.025Z,1003.68
2018-10-06T00:29:15.045Z,1003.65
2018-10-06T00:30:15.058Z,1003.64
2018-10-06T00:32:15.110Z,1003.60
2018-10-06T00:33:15.119Z,1003.61
2018-10-06T00:34:15.136Z,1003.66
2018-10-06T00:35:15.160Z,1003.63
2018-10-06T00:36:15.253Z,1003.65
2018-10-06T00:37:15.205Z,1003.67
2018-10-06T00:39:15.246Z,1003.67
2018-10-06T00:40:15.261Z,1003.68
2018-10-06T00:41:15.289Z,1003.66
2018-10-06T00:42:15.302Z,1003.69
2018-10-06T00:43:15.334Z,1003.66
2018-10-06T00:44:15.341Z,1003.66
2018-10-06T00:45:15.358Z,1003.63
2018-10-06T00:46:15.386Z,1003.64
2018-10-06T00:47:15.484Z,1003.63
2018-10-06T00:48:15.430Z,1003.61
2018-10-06T00:49:15.555Z,1003.61
2018-10-06T00:50:15.471Z,1003.56
2018-10-06T00:51:15.494Z,1003.52
2018-10-06T00:52:15.515Z,1003.50
2018-10-06T00:53:15.533Z,1003.49
2018-10-06T00:54:15.545Z,1003.48
2018-10-06T00:55:15.588Z,1003.46
2018-10-06T00:56:15.596Z,1003.48
2018-10-06T00:57:15.615Z,1003.46
2018-10-06T00:58:15.633Z,1003.44
2018-10-06T00:59:15.676Z,1003.42
2018-10-06T01:00:15.680Z,1003.43
2018-10-06T01:01:15.705Z,1003.43
2018-10-06T01:02:15.716Z,1003.42
2018-10-06T01:03:15.741Z,1003.38
2018-10-06T01:04:15.751Z,1003.38
2018-10-06T01:05:15.774Z,1003.39
2018-10-06T01:06:15.800Z,1003.39
2018-10-06T01:07:15.820Z,1003.34
2018-10-06T01:08:15.843Z,1003.34
2018-10-06T01:09:15.853Z,1003.38
2018-10-06T01:10:15.879Z,1003.32
2018-10-06T01:11:15.905Z,1003.35
2018-10-06T01:12:15.928Z,1003.29
2018-10-06T01:13:15.993Z,1003.27
2018-10-06T01:14:15.961Z,1003.29
2018-10-06T01:15:15.985Z,1003.27
2018-10-06T01:16:15.999Z,1003.27
2018-10-06T01:17:16.066Z,1003.27
2018-10-06T01:18:16.073Z,1003.19
2018-10-06T01:19:16.060Z,1003.18
2018-10-06T01:20:16.085Z,1003.18
2018-10-06T01:21:16.111Z,1003.20
2018-10-06T01:22:16.127Z,1003.11
2018-10-06T01:23:16.186Z,1003.14
2018-10-06T01:24:16.163Z,1003.09
2018-10-06T01:25:16.180Z,1003.10
2018-10-06T01:26:16.213Z,1003.09
2018-10-06T01:27:16.234Z,1003.09
2018-10-06T01:28:16.258Z,1003.07
2018-10-06T01:29:16.261Z,1003.03
2018-10-06T01:30:16.335Z,1003.05
2018-10-06T01:31:16.308Z,1003.04
2018-10-06T01:32:16.317Z,1003.09
2018-10-06T01:33:16.344Z,1003.07
2018-10-06T01:34:16.371Z,1003.09
2018-10-06T01:35:16.380Z,1003.08
2018-10-06T01:36:16.407Z,1003.10
2018-10-06T01:37:16.427Z,1003.10
2018-10-06T01:38:16.462Z,1003.14
2018-10-06T01:39:16.472Z,1003.08
2018-10-06T01:40:16.487Z,1003.06
2018-10-06T01:41:16.546Z,1003.10
2018-10-06T01:42:16.530Z,1003.11
2018-10-06T01:43:16.542Z,1003.09
2018-10-06T01:44:16.565Z,1003.07
2018-10-06T01:45:16.590Z,1003.06
2018-10-06T01:46:16.613Z,1003.05
2018-10-06T01:47:16.639Z,1003.03
2018-10-06T01:48:16.650Z,1003.05
2018-10-06T01:49:16.667Z,1003.04
2018-10-06T01:50:16.691Z,1003.04
2018-10-06T01:51:16.716Z,1003.03
2018-10-06T01:52:16.844Z,1003.07
2018-10-06T01:53:16.754Z,1003.07
2018-10-06T01:54:16.781Z,1003.01
2018-10-06T01:55:16.792Z,1003.05
2018-10-06T01:56:16.810Z,1003.08
2018-10-06T01:57:16.834Z,1003.06
2018-10-06T01:58:16.868Z,1003.05
2018-10-06T01:59:16.882Z,1003.06
2018-10-06T02:00:16.891Z,1003.07
2018-10-06T02:01:16.909Z,1003.03
2018-10-06T02:02:16.945Z,1003.02
2018-10-06T02:03:16.945Z,1002.99
2018-10-06T02:04:16.974Z,1003.01
2018-10-06T02:05:17.021Z,1003.03
2018-10-06T02:06:17.022Z,1002.99
2018-10-06T02:07:17.032Z,1002.99
2018-10-06T02:08:17.064Z,1003.01
2018-10-06T02:09:17.084Z,1002.98
2018-10-06T02:10:17.089Z,1002.99
2018-10-06T02:11:17.116Z,1003.00
2018-10-06T02:12:17.136Z,1002.94
2018-10-06T02:13:17.168Z,1002.97
2018-10-06T02:14:17.187Z,1002.94
2018-10-06T02:15:17.192Z,1002.92
2018-10-06T02:16:17.208Z,1002.92
2018-10-06T02:17:17.237Z,1002.94
2018-10-06T02:18:17.261Z,1002.93
2018-10-06T02:19:17.290Z,1002.92
2018-10-06T02:20:17.315Z,1002.93
2018-10-06T02:21:17.328Z,1002.92
2018-10-06T02:22:17.332Z,1002.90
2018-10-06T02:23:17.353Z,1002.86
2018-10-06T02:24:17.371Z,1002.85
2018-10-06T02:25:17.401Z,1002.89
2018-10-06T02:26:17.414Z,1002.86
2018-10-06T02:27:17.429Z,1002.85
2018-10-06T02:28:17.452Z,1002.84
2018-10-06T02:29:17.480Z,1002.90
2018-10-06T02:30:17.619Z,1002.83
2018-10-06T02:31:17.580Z,1002.81
2018-10-06T02:32:17.528Z,1002.87
2018-10-06T02:33:17.577Z,1002.84
2018-10-06T02:34:17.575Z,1002.85
2018-10-06T02:35:17.598Z,1002.83
2018-10-06T02:36:17.641Z,1002.78
2018-10-06T02:37:17.636Z,1002.78
2018-10-06T02:38:17.657Z,1002.74
2018-10-06T02:39:17.675Z,1002.75
2018-10-06T02:40:17.700Z,1002.73
2018-10-06T02:41:17.714Z,1002.72
2018-10-06T02:42:17.738Z,1002.71
2018-10-06T02:43:17.756Z,1002.71
2018-10-06T02:44:17.796Z,1002.67
2018-10-06T02:45:17.801Z,1002.68
2018-10-06T02:46:17.818Z,1002.70
2018-10-06T02:47:17.838Z,1002.67
2018-10-06T02:48:17.861Z,1002.71
2018-10-06T02:49:17.875Z,1002.68
2018-10-06T02:50:17.897Z,1002.65
2018-10-06T02:51:17.916Z,1002.65
2018-10-06T02:52:17.938Z,1002.65
2018-10-06T02:53:17.955Z,1002.65
2018-10-06T02:54:17.975Z,1002.68
2018-10-06T02:55:17.991Z,1002.69
2018-10-06T02:56:18.024Z,1002.70
2018-10-06T02:57:18.043Z,1002.72
2018-10-06T02:58:18.058Z,1002.73
2018-10-06T02:59:18.078Z,1002.72
2018-10-06T03:00:18.100Z,1002.70
2018-10-06T03:01:18.129Z,1002.71
2018-10-06T03:02:18.139Z,1002.70
2018-10-06T03:03:18.166Z,1002.71
2018-10-06T03:04:18.175Z,1002.70
2018-10-06T03:05:18.195Z,1002.69
2018-10-06T03:06:18.213Z,1002.67
2018-10-06T03:07:18.235Z,1002.66
2018-10-06T03:08:18.260Z,1002.68
2018-10-06T03:09:18.311Z,1002.67
2018-10-06T03:10:18.301Z,1002.67
2018-10-06T03:11:18.321Z,1002.65
2018-10-06T03:12:18.373Z,1002.65
2018-10-06T03:13:18.360Z,1002.64
2018-10-06T03:14:18.401Z,1002.65
2018-10-06T03:15:18.396Z,1002.62
2018-10-06T03:16:18.417Z,1002.67
2018-10-06T03:17:18.428Z,1002.65
2018-10-06T03:18:18.462Z,1002.62
2018-10-06T03:19:18.476Z,1002.59
2018-10-06T03:20:18.496Z,1002.61
2018-10-06T03:21:18.516Z,1002.62
2018-10-06T03:22:18.537Z,1002.58
2018-10-06T03:23:18.581Z,1002.59
2018-10-06T03:24:18.583Z,1002.57
2018-10-06T03:25:18.593Z,1002.58
2018-10-06T03:26:18.609Z,1002.56
2018-10-06T03:27:18.641Z,1002.54
2018-10-06T03:28:18.669Z,1002.56
2018-10-06T03:29:18.675Z,1002.51
2018-10-06T03:30:18.700Z,1002.51
2018-10-06T03:31:18.719Z,1002.53
2018-10-06T03:32:18.734Z,1002.52
2018-10-06T03:33:18.753Z,1002.51
2018-10-06T03:34:18.773Z,1002.47
2018-10-06T03:35:18.794Z,1002.49
2018-10-06T03:36:18.812Z,1002.51
2018-10-06T03:37:18.880Z,1002.47
2018-10-06T03:38:18.871Z,1002.50
2018-10-06T03:39:18.927Z,1002.46
2018-10-06T03:40:18.893Z,1002.47
2018-10-06T03:41:18.923Z,1002.49
2018-10-06T03:42:18.928Z,1002.51
2018-10-06T03:43:18.964Z,1002.48
2018-10-06T03:44:18.984Z,1002.48
2018-10-06T03:45:18.993Z,1002.49
2018-10-06T03:46:19.022Z,1002.47
2018-10-06T03:47:19.025Z,1002.46
2018-10-06T03:48:19.055Z,1002.48
2018-10-06T03:49:19.071Z,1002.46
2018-10-06T03:50:19.096Z,1002.50
2018-10-06T03:51:19.116Z,1002.49
2018-10-06T03:52:19.128Z,1002.53
2018-10-06T03:53:19.151Z,1002.50
2018-10-06T03:54:19.179Z,1002.52
2018-10-06T03:55:19.198Z,1002.54
2018-10-06T03:56:19.207Z,1002.47
2018-10-06T03:57:19.244Z,1002.47
2018-10-06T03:58:19.258Z,1002.47
2018-10-06T03:59:19.279Z,1002.46
2018-10-06T04:00:19.304Z,1002.46
2018-10-06T04:01:19.310Z,1002.44
2018-10-06T04:02:19.332Z,1002.44
2018-10-06T04:03:19.354Z,1002.42
2018-10-06T04:04:19.402Z,1002.40
2018-10-06T04:05:19.407Z,1002.44
2018-10-06T04:06:19.408Z,1002.40
2018-10-06T04:07:19.425Z,1002.42
2018-10-06T04:08:19.444Z,1002.38
2018-10-06T04:09:19.469Z,1002.36
2018-10-06T04:10:19.476Z,1002.33
2018-10-06T04:11:19.509Z,1002.36
2018-10-06T04:12:19.523Z,1002.32
2018-10-06T04:13:19.545Z,1002.36
2018-10-06T04:14:19.568Z,1002.37
2018-10-06T04:15:19.620Z,1002.35
2018-10-06T04:16:19.607Z,1002.36
2018-10-06T04:17:19.620Z,1002.36
2018-10-06T04:18:19.647Z,1002.32
2018-10-06T04:19:19.660Z,1002.35
2018-10-06T04:20:19.683Z,1002.30
2018-10-06T04:21:19.704Z,1002.31
2018-10-06T04:22:19.731Z,1002.31
2018-10-06T04:23:19.739Z,1002.28
2018-10-06T04:24:19.763Z,1002.23
2018-10-06T04:25:19.789Z,1002.23
2018-10-06T04:26:19.803Z,1002.25
2018-10-06T04:27:19.830Z,1002.23
2018-10-06T04:28:19.879Z,1002.20
2018-10-06T04:29:19.861Z,1002.21
2018-10-06T04:30:19.882Z,1002.19
2018-10-06T04:31:19.912Z,1002.18
2018-10-06T04:32:19.922Z,1002.17
2018-10-06T04:33:19.942Z,1002.16
2018-10-06T04:34:19.963Z,1002.14
2018-10-06T04:35:19.978Z,1002.18
2018-10-06T04:36:20.021Z,1002.18
2018-10-06T04:37:20.065Z,1002.17
2018-10-06T04:38:20.039Z,1002.12
2018-10-06T04:39:20.185Z,1002.13
2018-10-06T04:40:20.083Z,1002.15
2018-10-06T04:41:20.092Z,1002.13
2018-10-06T04:42:20.111Z,1002.13
2018-10-06T04:44:20.153Z,1002.08
2018-10-06T04:45:20.170Z,1002.12
2018-10-06T04:46:20.205Z,1002.10
2018-10-06T04:47:20.221Z,1002.07
2018-10-06T04:48:20.233Z,1002.04
2018-10-06T04:49:20.247Z,1002.05
2018-10-06T04:50:20.282Z,1002.04
2018-10-06T04:51:20.292Z,1002.04
2018-10-06T04:52:20.333Z,1002.06
2018-10-06T04:53:20.442Z,1002.02
2018-10-06T04:54:20.374Z,1002.00
2018-10-06T04:55:20.374Z,1002.01
2018-10-06T04:56:20.446Z,1002.01
2018-10-06T04:57:20.423Z,1002.02
2018-10-06T04:58:20.437Z,1002.01
2018-10-06T04:59:20.456Z,1002.02
2018-10-06T05:00:20.468Z,1002.03
2018-10-06T05:01:20.490Z,1002.06
2018-10-06T05:02:20.500Z,1002.06
2018-10-06T05:03:20.571Z,1002.10
2018-10-06T05:04:20.545Z,1002.07
2018-10-06T05:05:20.575Z,1002.07
2018-10-06T05:06:20.593Z,1002.10
2018-10-06T05:07:20.640Z,1002.09
2018-10-06T05:08:20.621Z,1002.10
2018-10-06T05:09:20.652Z,1002.09
2018-10-06T05:10:20.661Z,1002.09
2018-10-06T05:11:20.689Z,1002.11
2018-10-06T05:12:20.702Z,1002.09
2018-10-06T05:13:20.721Z,1002.14
2018-10-06T05:14:20.742Z,1002.12
2018-10-06T05:15:20.769Z,1002.06
2018-10-06T05:16:20.791Z,1002.11
2018-10-06T05:18:20.934Z,1002.07
2018-10-06T05:19:20.845Z,1002.10
2018-10-06T05:20:20.959Z,1002.05
2018-10-06T05:21:20.880Z,1002.03
2018-10-06T05:22:20.897Z,1002.03
2018-10-06T05:23:20.928Z,1002.01
2018-10-06T05:24:20.935Z,1002.03
2018-10-06T05:25:20.958Z,1002.02
2018-10-06T05:26:20.983Z,1002.05
2018-10-06T05:27:21.005Z,1002.05
2018-10-06T05:28:21.024Z,1002.06
2018-10-06T05:29:21.042Z,1002.05
2018-10-06T05:30:21.059Z,1002.08
2018-10-06T05:31:21.144Z,1002.08
2018-10-06T05:32:21.093Z,1002.08
2018-10-06T05:33:21.127Z,1002.11
2018-10-06T05:34:21.137Z,1002.10
2018-10-06T05:35:21.155Z,1002.11
2018-10-06T05:36:21.180Z,1002.08
2018-10-06T05:37:21.194Z,1002.10
2018-10-06T05:38:21.215Z,1002.09
2018-10-06T05:39:21.244Z,1002.09
2018-10-06T05:40:21.271Z,1002.17
2018-10-06T05:41:21.282Z,1002.09
2018-10-06T05:42:21.308Z,1002.07
2018-10-06T05:43:21.324Z,1002.08
2018-10-06T05:44:21.340Z,1002.10
2018-10-06T05:45:21.356Z,1002.15
2018-10-06T05:46:21.402Z,1002.11
2018-10-06T05:47:21.388Z,1002.11
2018-10-06T05:48:21.413Z,1002.11
2018-10-06T05:49:21.427Z,1002.10
2018-10-06T05:50:21.452Z,1002.08
2018-10-06T05:51:21.468Z,1002.13
2018-10-06T05:52:21.497Z,1002.13
2018-10-06T05:53:21.511Z,1002.12
2018-10-06T05:54:21.534Z,1002.13
2018-10-06T05:55:21.590Z,1002.09
2018-10-06T05:56:21.561Z,1002.09
2018-10-06T05:57:21.582Z,1002.04
2018-10-06T05:58:21.601Z,1002.05
2018-10-06T05:59:21.654Z,1002.02
2018-10-06T06:00:21.648Z,1002.07
2018-10-06T06:01:21.662Z,1002.08
2018-10-06T06:02:21.740Z,1002.05
2018-10-06T06:03:21.705Z,1002.06
2018-10-06T06:04:21.720Z,1002.06
2018-10-06T06:05:21.756Z,1002.05
2018-10-06T06:06:21.772Z,1002.02
2018-10-06T06:07:21.784Z,1002.01
2018-10-06T06:08:21.834Z,1002.02
2018-10-06T06:09:21.899Z,1002.00
2018-10-06T06:10:21.868Z,1002.03
2018-10-06T06:11:21.860Z,1002.05
2018-10-06T06:12:21.876Z,1002.03
2018-10-06T06:13:21.893Z,1002.05
2018-10-06T06:14:21.920Z,1002.06
2018-10-06T06:15:21.937Z,1002.02
2018-10-06T06:16:21.959Z,1002.04
2018-10-06T06:17:21.972Z,1002.02
2018-10-06T06:19:22.011Z,1002.06
2018-10-06T06:20:22.036Z,1002.06
2018-10-06T06:21:22.045Z,1002.08
2018-10-06T06:22:22.090Z,1002.13
2018-10-06T06:23:22.092Z,1002.10
2018-10-06T06:24:22.122Z,1002.10
2018-10-06T06:25:22.131Z,1002.14
2018-10-06T06:26:22.161Z,1002.19
2018-10-06T06:27:22.176Z,1002.24
2018-10-06T06:28:22.191Z,1002.21
2018-10-06T06:29:22.210Z,1002.21
2018-10-06T06:30:22.226Z,1002.22
2018-10-06T06:31:22.305Z,1002.23
2018-10-06T06:32:22.304Z,1002.21
2018-10-06T06:33:22.288Z,1002.23
2018-10-06T06:34:22.308Z,1002.24
2018-10-06T06:35:22.327Z,1002.22
2018-10-06T06:36:22.369Z,1002.28
2018-10-06T06:37:22.389Z,1002.28
2018-10-06T06:38:22.478Z,1002.32
2018-10-06T06:39:22.400Z,1002.30
2018-10-06T06:40:22.423Z,1002.27
2018-10-06T06:41:22.460Z,1002.31
2018-10-06T06:42:22.542Z,1002.31
2018-10-06T06:43:22.503Z,1002.26
2018-10-06T06:44:22.611Z,1002.26
2018-10-06T06:45:22.524Z,1002.26
2018-10-06T06:46:22.537Z,1002.23
2018-10-06T06:47:22.566Z,1002.26
2018-10-06T06:48:22.582Z,1002.20
2018-10-06T06:49:22.600Z,1002.23
2018-10-06T06:50:22.642Z,1002.19
2018-10-06T06:51:22.711Z,1002.14
2018-10-06T06:52:22.681Z,1002.14
2018-10-06T06:53:22.681Z,1002.15
2018-10-06T06:54:22.697Z,1002.17
2018-10-06T06:55:22.729Z,1002.19
2018-10-06T06:56:22.743Z,1002.20
2018-10-06T06:57:22.756Z,1002.20
2018-10-06T06:58:22.790Z,1002.23
2018-10-06T06:59:22.789Z,1002.22
2018-10-06T07:00:22.829Z,1002.21
2018-10-06T07:01:22.842Z,1002.22
2018-10-06T07:02:22.916Z,1002.21
2018-10-06T07:03:22.868Z,1002.20
2018-10-06T07:04:22.921Z,1002.23
2018-10-06T07:05:22.926Z,1002.22
2018-10-06T07:06:22.935Z,1002.19
2018-10-06T07:07:22.952Z,1002.20
2018-10-06T07:08:22.973Z,1002.20
2018-10-06T07:09:22.984Z,1002.17
2018-10-06T07:10:23.017Z,1002.22
2018-10-06T07:11:23.041Z,1002.23
2018-10-06T07:12:23.062Z,1002.23
2018-10-06T07:13:23.072Z,1002.26
2018-10-06T07:14:23.088Z,1002.28
2018-10-06T07:15:23.146Z,1002.25
2018-10-06T07:16:23.126Z,1002.24
2018-10-06T07:17:23.144Z,1002.21
2018-10-06T07:18:23.254Z,1002.19
2018-10-06T07:19:23.220Z,1002.21
2018-10-06T07:20:23.223Z,1002.19
2018-10-06T07:21:23.232Z,1002.21
2018-10-06T07:22:23.244Z,1002.17
2018-10-06T07:23:23.273Z,1002.19
2018-10-06T07:24:23.295Z,1002.18
2018-10-06T07:25:23.345Z,1002.19
2018-10-06T07:26:23.327Z,1002.24
2018-10-06T07:27:23.350Z,1002.19
2018-10-06T07:28:23.421Z,1002.18
2018-10-06T07:29:23.382Z,1002.17
2018-10-06T07:30:23.420Z,1002.13
2018-10-06T07:31:23.430Z,1002.12
2018-10-06T07:32:23.438Z,1002.13
2018-10-06T07:33:23.464Z,1002.10
2018-10-06T07:34:23.486Z,1002.09
2018-10-06T07:35:23.509Z,1002.16
2018-10-06T07:36:23.518Z,1002.11
2018-10-06T07:37:23.542Z,1002.11
2018-10-06T07:38:23.566Z,1002.04
2018-10-06T07:39:23.579Z,1002.04
2018-10-06T07:40:23.599Z,1002.03
2018-10-06T07:41:23.618Z,1002.02
2018-10-06T07:42:23.643Z,1002.03
2018-10-06T07:43:23.710Z,1002.03
2018-10-06T07:44:23.686Z,1002.07
2018-10-06T07:45:23.699Z,1002.08
2018-10-06T07:46:23.736Z,1002.08
2018-10-06T07:47:23.741Z,1002.05
2018-10-06T07:48:23.762Z,1002.03
2018-10-06T07:49:23.786Z,1002.03
2018-10-06T07:50:23.808Z,1001.99
2018-10-06T07:51:23.823Z,1001.99
2018-10-06T07:52:23.842Z,1001.97
2018-10-06T07:53:23.863Z,1001.96
2018-10-06T07:54:23.909Z,1001.92
2018-10-06T07:55:23.919Z,1001.93
2018-10-06T07:56:23.927Z,1001.92
2018-10-06T07:57:23.943Z,1001.91
2018-10-06T07:58:23.970Z,1001.92
2018-10-06T07:59:24.023Z,1001.88
2018-10-06T08:00:24.004Z,1001.89
2018-10-06T08:01:24.048Z,1001.88
2018-10-06T08:02:24.053Z,1001.89
2018-10-06T08:03:24.126Z,1001.88
2018-10-06T08:04:24.102Z,1001.90
2018-10-06T08:05:24.114Z,1001.87
2018-10-06T08:06:24.213Z,1001.90
2018-10-06T08:07:24.151Z,1001.94
2018-10-06T08:08:24.166Z,1001.92
2018-10-06T08:09:24.183Z,1001.93
2018-10-06T08:10:24.248Z,1001.93
2018-10-06T08:11:24.227Z,1001.89
2018-10-06T08:12:24.249Z,1001.88
2018-10-06T08:13:24.277Z,1001.84
2018-10-06T08:14:24.281Z,1001.89
2018-10-06T08:15:24.309Z,1001.89
2018-10-06T08:16:24.331Z,1001.92
2018-10-06T08:17:24.350Z,1001.95
2018-10-06T08:18:24.492Z,1001.96
2018-10-06T08:19:24.392Z,1002.02
2018-10-06T08:20:24.414Z,1001.96
2018-10-06T08:21:24.435Z,1001.93
2018-10-06T08:22:24.456Z,1001.93
2018-10-06T08:23:24.471Z,1001.92
2018-10-06T08:24:24.507Z,1001.89
2018-10-06T08:25:24.521Z,1001.87
2018-10-06T08:26:24.546Z,1001.87
2018-10-06T08:27:24.564Z,1001.88
2018-10-06T08:28:24.582Z,1001.87
2018-10-06T08:29:24.591Z,1001.89
2018-10-06T08:30:24.624Z,1001.88
2018-10-06T08:31:24.671Z,1001.85
2018-10-06T08:32:24.658Z,1001.86
2018-10-06T08:33:24.679Z,1001.84
2018-10-06T08:34:24.708Z,1001.78
2018-10-06T08:35:24.714Z,1001.76
2018-10-06T08:36:24.745Z,1001.82
2018-10-06T08:37:24.763Z,1001.81
2018-10-06T08:38:24.784Z,1001.82
2018-10-06T08:39:24.817Z,1001.87
2018-10-06T08:40:24.835Z,1001.84
2018-10-06T08:41:24.838Z,1001.84
2018-10-06T08:42:24.862Z,1001.83
2018-10-06T08:43:24.886Z,1001.87
2018-10-06T08:44:24.908Z,1001.87
2018-10-06T08:45:24.929Z,1001.85
2018-10-06T08:46:24.998Z,1001.87
2018-10-06T08:47:24.969Z,1001.86
2018-10-06T08:48:24.985Z,1001.90
2018-10-06T08:49:25.010Z,1001.85
2018-10-06T08:50:25.045Z,1001.81
2018-10-06T08:51:25.053Z,1001.75
2018-10-06T08:52:25.067Z,1001.74
2018-10-06T08:53:25.092Z,1001.72
2018-10-06T08:54:25.117Z,1001.70
2018-10-06T08:55:25.133Z,1001.70
2018-10-06T08:56:25.263Z,1001.71
2018-10-06T08:57:25.225Z,1001.69
2018-10-06T08:58:25.191Z,1001.69
2018-10-06T08:59:25.229Z,1001.66
2018-10-06T09:00:25.246Z,1001.70
2018-10-06T09:01:25.271Z,1001.74
2018-10-06T09:02:25.277Z,1001.72
2018-10-06T09:03:25.301Z,1001.70
2018-10-06T09:04:25.407Z,1001.71
2018-10-06T09:05:25.339Z,1001.67
2018-10-06T09:06:25.356Z,1001.68
2018-10-06T09:07:25.385Z,1001.69
2018-10-06T09:08:25.400Z,1001.68
2018-10-06T09:09:25.421Z,1001.70
2018-10-06T09:10:25.524Z,1001.70
2018-10-06T09:11:25.468Z,1001.71
2018-10-06T09:12:25.483Z,1001.67
2018-10-06T09:13:25.505Z,1001.73
2018-10-06T09:14:25.533Z,1001.72
2018-10-06T09:15:25.544Z,1001.70
2018-10-06T09:16:25.577Z,1001.75
2018-10-06T09:17:25.589Z,1001.68
2018-10-06T09:18:25.617Z,1001.71
2018-10-06T09:19:25.666Z,1001.71
2018-10-06T09:20:25.657Z,1001.68
2018-10-06T09:21:25.702Z,1001.68
2018-10-06T09:22:25.734Z,1001.66
2018-10-06T09:23:25.721Z,1001.70
2018-10-06T09:24:25.763Z,1001.65
2018-10-06T09:25:25.754Z,1001.70
2018-10-06T09:26:25.778Z,1001.71
2018-10-06T09:27:25.794Z,1001.69
2018-10-06T09:28:25.918Z,1001.71
2018-10-06T09:29:25.848Z,1001.69
2018-10-06T09:30:25.856Z,1001.67
2018-10-06T09:31:25.881Z,1001.65
2018-10-06T09:32:25.903Z,1001.63
2018-10-06T09:33:25.943Z,1001.64
2018-10-06T09:34:25.958Z,1001.63
2018-10-06T09:35:25.966Z,1001.60
2018-10-06T09:37:26.003Z,1001.59
2018-10-06T09:38:26.074Z,1001.61
2018-10-06T09:39:26.308Z,1001.58
2018-10-06T09:40:26.353Z,1001.60
2018-10-06T09:41:26.191Z,1001.56
2018-10-06T09:42:26.332Z,1001.55
2018-10-06T09:43:26.260Z,1001.54
2018-10-06T09:44:26.161Z,1001.57
2018-10-06T09:45:26.196Z,1001.56
2018-10-06T09:46:26.197Z,1001.51
2018-10-06T09:47:26.220Z,1001.52
2018-10-06T09:48:26.244Z,1001.49
2018-10-06T09:49:26.258Z,1001.45
2018-10-06T09:50:26.288Z,1001.48
2018-10-06T09:51:26.304Z,1001.49
2018-10-06T09:52:26.329Z,1001.50
2018-10-06T09:53:26.359Z,1001.48
2018-10-06T09:54:26.368Z,1001.53
2018-10-06T09:55:26.397Z,1001.52
2018-10-06T09:56:26.429Z,1001.52
2018-10-06T09:57:26.487Z,1001.52
2018-10-06T09:58:26.544Z,1001.52
2018-10-06T09:59:26.536Z,1001.53
2018-10-06T10:00:26.624Z,1001.53
2018-10-06T10:01:26.522Z,1001.46
2018-10-06T10:02:26.576Z,1001.48
2018-10-06T10:03:26.696Z,1001.49
2018-10-06T10:04:26.598Z,1001.44
2018-10-06T10:05:26.811Z,1001.45
2018-10-06T10:06:26.636Z,1001.44
2018-10-06T10:07:26.646Z,1001.40
2018-10-06T10:08:26.672Z,1001.39
2018-10-06T10:09:26.743Z,1001.38
2018-10-06T10:10:26.708Z,1001.42
2018-10-06T10:11:26.742Z,1001.37
2018-10-06T10:12:26.792Z,1001.36
2018-10-06T10:13:26.776Z,1001.38
2018-10-06T10:14:26.797Z,1001.35
2018-10-06T10:15:26.899Z,1001.37
2018-10-06T10:16:26.839Z,1001.35
2018-10-06T10:17:26.972Z,1001.33
2018-10-06T10:18:27.004Z,1001.32
2018-10-06T10:19:26.906Z,1001.28
2018-10-06T10:20:26.947Z,1001.32
2018-10-06T10:21:26.950Z,1001.29
2018-10-06T10:22:27.197Z,1001.25
2018-10-06T10:23:27.033Z,1001.22
2018-10-06T10:24:27.046Z,1001.21
2018-10-06T10:25:27.024Z,1001.19
2018-10-06T10:26:27.089Z,1001.20
2018-10-06T10:27:27.080Z,1001.17
2018-10-06T10:28:27.186Z,1001.13
2018-10-06T10:29:27.123Z,1001.15
2018-10-06T10:30:27.151Z,1001.14
2018-10-06T10:31:27.161Z,1001.13
2018-10-06T10:32:27.176Z,1001.11
2018-10-06T10:33:27.243Z,1001.13
2018-10-06T10:34:27.252Z,1001.14
2018-10-06T10:35:27.274Z,1001.08
2018-10-06T10:36:27.273Z,1001.07
2018-10-06T10:37:27.392Z,1001.04
2018-10-06T10:38:27.321Z,1001.05
2018-10-06T10:39:27.486Z,1001.06
2018-10-06T10:40:27.367Z,1001.08
2018-10-06T10:41:27.378Z,1001.03
2018-10-06T10:42:27.463Z,1000.99
2018-10-06T10:43:27.426Z,1001.00
2018-10-06T10:44:28.080Z,1001.02
2018-10-06T10:45:27.468Z,1001.03
2018-10-06T10:46:27.624Z,1000.99
2018-10-06T10:47:27.513Z,1000.97
2018-10-06T10:48:27.531Z,1000.97
2018-10-06T10:49:27.628Z,1000.96
2018-10-06T10:50:27.805Z,1000.95
2018-10-06T10:51:27.595Z,1000.89
2018-10-06T10:52:27.885Z,1000.92
2018-10-06T10:53:27.769Z,1000.87
2018-10-06T10:54:27.683Z,1000.91
2018-10-06T10:55:27.688Z,1000.89
2018-10-06T10:56:27.709Z,1000.84
2018-10-06T10:57:27.744Z,1000.78
2018-10-06T10:58:27.752Z,1000.81
2018-10-06T10:59:27.799Z,1000.78
2018-10-06T11:00:27.823Z,1000.76
2018-10-06T11:01:27.834Z,1000.72
2018-10-06T11:02:27.834Z,1000.71
2018-10-06T11:03:27.867Z,1000.65
2018-10-06T11:04:27.880Z,1000.66
2018-10-06T11:05:27.912Z,1000.73
2018-10-06T11:06:27.933Z,1000.70
2018-10-06T11:07:27.956Z,1000.85
2018-10-06T11:08:27.981Z,1000.66
2018-10-06T11:09:28.004Z,1000.69
2018-10-06T11:10:28.024Z,1000.71
2018-10-06T11:11:28.052Z,1000.64
2018-10-06T11:12:28.170Z,1000.65
2018-10-06T11:13:28.092Z,1000.75
2018-10-06T11:14:28.150Z,1000.70
2018-10-06T11:15:28.142Z,1000.58
2018-10-06T11:16:28.226Z,1000.64
2018-10-06T11:17:28.216Z,1000.52
2018-10-06T11:18:28.216Z,1000.45
2018-10-06T11:19:28.243Z,1000.47
2018-10-06T11:20:28.268Z,1000.42
2018-10-06T11:21:28.291Z,1000.40
2018-10-06T11:22:28.319Z,1000.43
2018-10-06T11:23:28.352Z,1000.45
2018-10-06T11:24:28.362Z,1000.63
2018-10-06T11:25:28.395Z,1000.60
2018-10-06T11:26:28.412Z,1000.63
2018-10-06T11:27:28.457Z,1000.60
2018-10-06T11:28:28.531Z,1000.59
2018-10-06T11:29:28.535Z,1000.45
2018-10-06T11:30:28.524Z,1000.38
2018-10-06T11:31:28.542Z,1000.34
2018-10-06T11:32:28.560Z,1000.29
2018-10-06T11:33:28.589Z,1000.31
2018-10-06T11:34:28.606Z,1000.25
2018-10-06T11:35:28.637Z,1000.27
2018-10-06T11:36:28.680Z,1000.18
2018-10-06T11:37:28.710Z,1000.24
2018-10-06T11:38:28.738Z,1000.17
2018-10-06T11:39:28.753Z,1000.11
2018-10-06T11:40:28.772Z,1000.13
2018-10-06T11:41:28.782Z,1000.09
2018-10-06T11:42:28.816Z,1000.07
2018-10-06T11:43:28.836Z,999.99
2018-10-06T11:44:28.846Z,1000.02
2018-10-06T11:45:28.887Z,999.99
2018-10-06T11:46:28.901Z,999.96
2018-10-06T11:47:29.059Z,999.89
2018-10-06T11:48:28.943Z,999.87
2018-10-06T11:49:28.973Z,999.87
2018-10-06T11:50:29.001Z,999.82
2018-10-06T11:51:29.022Z,999.83
2018-10-06T11:52:29.040Z,999.81
2018-10-06T11:53:29.069Z,999.81
2018-10-06T11:54:29.090Z,999.82
2018-10-06T11:55:29.114Z,999.82
2018-10-06T11:56:29.128Z,999.81
2018-10-06T11:57:29.160Z,999.81
2018-10-06T11:58:29.195Z,999.79
2018-10-06T11:59:29.226Z,999.81
2018-10-06T12:00:29.296Z,999.76
2018-10-06T12:01:29.257Z,999.82
2018-10-06T12:02:29.274Z,999.78
2018-10-06T12:03:29.308Z,999.79
2018-10-06T12:04:29.325Z,999.80
2018-10-06T12:05:29.346Z,999.77
2018-10-06T12:06:29.371Z,999.75
2018-10-06T12:07:29.399Z,999.75
2018-10-06T12:08:29.407Z,999.69
2018-10-06T12:09:29.441Z,999.68
2018-10-06T12:10:29.500Z,999.66
2018-10-06T12:11:29.485Z,999.66
2018-10-06T12:12:29.506Z,999.62